Time;durP1;ratioP1;P1;durP2;ratioP2;P2;SDS_P1;SDS_P2;PMS_P1;PMS_P2;Temp;Humidity;BMP_temperature;BMP_pressure;BME280_temperature;BME280_humidity;BME280_pressure;Samples;Min_cycle;Max_cycle;Signal;HPM_P1;HPM_P2
2024/01/21 00:00:13;;;;;;;8.32;3.55;;;;;;;;;;4962857;28;92212;-84
2024/01/21 00:02:40;;;;;;;10.07;3.60;;;;;;;;;;4961335;28;92400;-84
2024/01/21 00:05:07;;;;;;;8.00;3.25;;;;;;;;;;4962599;28;92861;-85
2024/01/21 00:07:34;;;;;;;7.43;3.22;;;;;;;;;;4966845;28;92135;-84
2024/01/21 00:10:00;;;;;;;6.28;2.95;;;;;;;;;;4965814;28;95422;-85
2024/01/21 00:12:27;;;;;;;7.30;3.03;;;;;;;;;;4960800;28;94676;-84
2024/01/21 00:14:54;;;;;;;8.50;3.30;;;;;;;;;;4960899;28;92035;-85
2024/01/21 00:17:20;;;;;;;8.10;3.42;;;;;;;;;;4962803;28;94432;-83
2024/01/21 00:19:47;;;;;;;9.40;3.25;;;;;;;;;;4967873;28;93199;-84
2024/01/21 00:22:13;;;;;;;6.25;2.80;;;;;;;;;;4964456;28;95100;-84
2024/01/21 00:24:40;;;;;;;8.07;2.95;;;;;;;;;;4985669;28;92589;-85
2024/01/21 00:27:07;;;;;;;8.05;3.40;;;;;;;;;;4985659;28;92119;-84
2024/01/21 00:29:33;;;;;;;8.70;3.10;;;;;;;;;;4985370;28;92637;-85
2024/01/21 00:32:00;;;;;;;7.30;3.15;;;;;;;;;;4983938;28;92432;-84
2024/01/21 00:34:27;;;;;;;6.32;2.75;;;;;;;;;;4981902;28;91291;-84
2024/01/21 00:36:55;;;;;;;7.32;3.03;;;;;;;;;;4965988;28;92101;-85
2024/01/21 00:39:22;;;;;;;6.85;2.70;;;;;;;;;;4965907;28;93105;-84
2024/01/21 00:41:48;;;;;;;8.48;2.90;;;;;;;;;;4967299;28;94801;-84
2024/01/21 00:44:30;;;;;;;6.07;2.63;;;;;;;;;;4951307;28;94889;-85
2024/01/21 00:46:56;;;;;;;6.88;2.72;;;;;;;;;;4965283;28;92096;-83
2024/01/21 00:49:23;;;;;;;6.82;2.95;;;;;;;;;;4964630;28;92441;-84
2024/01/21 00:51:49;;;;;;;8.15;3.00;;;;;;;;;;4963348;28;94964;-84
2024/01/21 00:54:16;;;;;;;6.13;2.50;;;;;;;;;;4963326;28;92995;-84
2024/01/21 00:56:43;;;;;;;6.75;2.63;;;;;;;;;;4974066;28;94487;-84
2024/01/21 00:59:11;;;;;;;6.15;2.75;;;;;;;;;;4962867;28;92097;-83
2024/01/21 01:01:38;;;;;;;6.82;2.70;;;;;;;;;;4964040;28;92331;-84
2024/01/21 01:04:05;;;;;;;7.88;2.80;;;;;;;;;;4968948;28;92211;-83
2024/01/21 01:06:33;;;;;;;7.50;2.83;;;;;;;;;;4961483;28;94619;-84
2024/01/21 01:08:59;;;;;;;6.80;2.88;;;;;;;;;;4981206;28;95033;-84
2024/01/21 01:11:27;;;;;;;6.93;2.63;;;;;;;;;;4984428;28;95326;-84
2024/01/21 01:13:54;;;;;;;6.38;2.55;;;;;;;;;;4983661;28;92620;-86
2024/01/21 01:16:21;;;;;;;7.45;2.97;;;;;;;;;;4967390;28;94971;-85
2024/01/21 01:18:48;;;;;;;7.13;2.70;;;;;;;;;;4963401;28;95551;-84
2024/01/21 01:21:15;;;;;;;;;;;;;;;;;;4963976;28;92895;-84
2024/01/21 01:23:41;;;;;;;6.82;2.72;;;;;;;;;;4965944;28;91934;-84
2024/01/21 01:26:08;;;;;;;6.50;2.60;;;;;;;;;;4966461;28;95672;-85
2024/01/21 01:28:35;;;;;;;7.18;2.85;;;;;;;;;;4964143;28;94847;-83
2024/01/21 01:31:01;;;;;;;7.03;3.00;;;;;;;;;;4962284;28;95165;-86
2024/01/21 01:33:28;;;;;;;6.55;2.35;;;;;;;;;;4960389;28;92305;-85
2024/01/21 01:35:55;;;;;;;6.00;2.50;;;;;;;;;;4945638;28;93183;-86
2024/01/21 01:38:21;;;;;;;6.15;2.58;;;;;;;;;;4949399;28;92779;-83
2024/01/21 01:40:48;;;;;;;7.47;2.70;;;;;;;;;;4961242;28;93004;-84
2024/01/21 01:43:14;;;;;;;5.90;2.53;;;;;;;;;;4963826;28;92690;-84
2024/01/21 01:45:41;;;;;;;6.35;2.50;;;;;;;;;;4963983;28;92868;-82
2024/01/21 01:48:07;;;;;;;4.97;2.40;;;;;;;;;;4965482;28;91409;-83
2024/01/21 01:50:34;;;;;;;6.07;2.60;;;;;;;;;;4944528;28;92739;-82
2024/01/21 01:53:01;;;;;;;6.38;2.53;;;;;;;;;;4961927;28;92339;-83
2024/01/21 01:55:28;;;;;;;6.38;2.53;;;;;;;;;;4964000;28;95003;-83
2024/01/21 01:57:54;;;;;;;6.05;2.42;;;;;;;;;;4972497;28;92719;-83
2024/01/21 02:00:21;;;;;;;5.82;2.35;;;;;;;;;;4962864;28;92424;-84
2024/01/21 02:02:47;;;;;;;5.93;2.30;;;;;;;;;;4961673;28;95621;-83
2024/01/21 02:05:14;;;;;;;5.50;2.20;;;;;;;;;;4962911;28;92820;-84
2024/01/21 02:07:41;;;;;;;7.95;2.85;;;;;;;;;;4966917;28;92819;-84
2024/01/21 02:10:07;;;;;;;6.85;2.88;;;;;;;;;;4965344;28;92813;-83
2024/01/21 02:12:34;;;;;;;6.32;2.83;;;;;;;;;;4963276;28;91879;-83
2024/01/21 02:15:02;;;;;;;6.80;2.60;;;;;;;;;;4964122;28;94347;-83
2024/01/21 02:17:29;;;;;;;7.97;2.85;;;;;;;;;;4965265;28;92706;-84
2024/01/21 02:19:55;;;;;;;6.50;2.65;;;;;;;;;;4962874;28;94721;-83
2024/01/21 02:22:23;;;;;;;6.35;2.60;;;;;;;;;;4965643;28;94370;-84
2024/01/21 02:24:50;;;;;;;6.55;2.70;;;;;;;;;;4964200;28;99773;-83
2024/01/21 02:27:17;;;;;;;5.43;2.40;;;;;;;;;;4963013;28;92817;-83
2024/01/21 02:29:43;;;;;;;6.35;2.70;;;;;;;;;;4968068;28;92168;-83
2024/01/21 02:32:10;;;;;;;6.15;2.65;;;;;;;;;;4963968;28;92229;-84
2024/01/21 02:34:36;;;;;;;5.43;2.58;;;;;;;;;;4962863;28;92705;-82
2024/01/21 02:37:03;;;;;;;5.55;2.40;;;;;;;;;;4947567;28;94343;-84
2024/01/21 02:39:29;;;;;;;6.53;2.50;;;;;;;;;;4963031;28;92616;-83
2024/01/21 02:41:56;;;;;;;5.93;2.50;;;;;;;;;;4963743;28;95122;-83
2024/01/21 02:44:23;;;;;;;6.35;2.58;;;;;;;;;;4963657;28;95217;-84
2024/01/21 02:46:49;;;;;;;6.22;2.60;;;;;;;;;;4962892;28;92719;-84
2024/01/21 02:49:16;;;;;;;7.03;2.83;;;;;;;;;;4947527;28;95204;-84
2024/01/21 02:51:43;;;;;;;6.60;2.55;;;;;;;;;;4966277;28;95536;-83
2024/01/21 02:54:10;;;;;;;5.97;2.60;;;;;;;;;;4964075;28;94821;-83
2024/01/21 02:56:36;;;;;;;5.43;2.58;;;;;;;;;;4977350;28;92820;-84
2024/01/21 02:59:03;;;;;;;6.90;2.97;;;;;;;;;;4966651;28;92236;-84
2024/01/21 03:01:30;;;;;;;6.28;2.58;;;;;;;;;;4964494;28;92359;-83
2024/01/21 03:03:56;;;;;;;5.95;2.63;;;;;;;;;;4965797;28;93084;-83
2024/01/21 03:06:23;;;;;;;6.57;2.65;;;;;;;;;;4964212;28;92513;-84
2024/01/21 03:08:50;;;;;;;6.22;2.63;;;;;;;;;;4977434;28;94429;-83
2024/01/21 03:11:16;;;;;;;6.05;2.35;;;;;;;;;;4981308;28;92324;-84
2024/01/21 03:13:43;;;;;;;5.72;2.58;;;;;;;;;;4968522;28;92554;-82
2024/01/21 03:16:10;;;;;;;6.22;2.60;;;;;;;;;;4964241;28;94906;-84
2024/01/21 03:18:38;;;;;;;6.30;2.47;;;;;;;;;;4964996;28;92362;-82
2024/01/21 03:21:06;;;;;;;7.88;2.78;;;;;;;;;;4962574;28;95756;-81
2024/01/21 03:23:33;;;;;;;7.10;2.67;;;;;;;;;;4962308;28;93134;-82
2024/01/21 03:26:00;;;;;;;6.38;2.40;;;;;;;;;;4962955;28;92039;-82
2024/01/21 03:28:27;;;;;;;6.70;2.65;;;;;;;;;;4962061;28;93742;-82
2024/01/21 03:30:53;;;;;;;6.35;2.50;;;;;;;;;;4961271;28;95266;-83
2024/01/21 03:33:20;;;;;;;7.20;2.70;;;;;;;;;;4960093;28;94922;-82
2024/01/21 03:35:47;;;;;;;6.90;2.53;;;;;;;;;;4964294;28;95256;-84
2024/01/21 03:38:14;;;;;;;5.65;2.30;;;;;;;;;;4961957;28;93146;-82
2024/01/21 03:40:40;;;;;;;5.88;2.40;;;;;;;;;;4961412;28;94868;-81
2024/01/21 03:43:07;;;;;;;5.40;2.35;;;;;;;;;;4944914;28;95556;-83
2024/01/21 03:45:34;;;;;;;5.82;2.50;;;;;;;;;;4961347;28;92187;-82
2024/01/21 03:48:00;;;;;;;5.15;2.30;;;;;;;;;;4962730;28;92827;-81
2024/01/21 03:50:27;;;;;;;6.50;2.22;;;;;;;;;;4947114;28;94659;-83
2024/01/21 03:52:54;;;;;;;5.90;2.30;;;;;;;;;;4965636;28;92411;-83
2024/01/21 03:55:20;;;;;;;6.95;2.40;;;;;;;;;;4971104;28;94950;-83
2024/01/21 03:57:48;;;;;;;6.15;2.75;;;;;;;;;;4983414;28;94761;-82
2024/01/21 04:00:16;;;;;;;4.97;2.30;;;;;;;;;;4960448;28;97325;-82
2024/01/21 04:02:43;;;;;;;6.10;2.47;;;;;;;;;;4963032;28;93375;-82
2024/01/21 04:05:09;;;;;;;4.70;2.15;;;;;;;;;;4965899;28;92210;-82
2024/01/21 04:07:36;;;;;;;6.07;2.40;;;;;;;;;;4966130;28;95071;-81
2024/01/21 04:10:05;;;;;;;5.10;2.20;;;;;;;;;;4966083;28;93027;-83
2024/01/21 04:12:32;;;;;;;6.22;2.30;;;;;;;;;;4964216;28;92170;-81
2024/01/21 04:14:58;;;;;;;4.40;2.08;;;;;;;;;;4964375;28;94809;-82
2024/01/21 04:17:25;;;;;;;5.90;2.10;;;;;;;;;;4968795;28;92573;-83
2024/01/21 04:19:52;;;;;;;6.13;2.50;;;;;;;;;;4949004;28;94592;-82
2024/01/21 04:22:18;;;;;;;4.95;2.30;;;;;;;;;;4962937;28;94953;-82
2024/01/21 04:24:46;;;;;;;5.78;2.35;;;;;;;;;;4964964;28;92422;-83
2024/01/21 04:27:12;;;;;;;5.38;2.05;;;;;;;;;;4965573;28;92238;-83
2024/01/21 04:29:39;;;;;;;5.93;2.30;;;;;;;;;;4964052;28;93243;-82
2024/01/21 04:32:06;;;;;;;5.80;2.40;;;;;;;;;;4965645;28;92611;-81
2024/01/21 04:34:33;;;;;;;5.25;2.30;;;;;;;;;;4960934;28;92458;-82
2024/01/21 04:37:01;;;;;;;5.50;2.20;;;;;;;;;;4957292;28;92726;-82
2024/01/21 04:39:27;;;;;;;5.50;2.20;;;;;;;;;;4966794;28;91714;-82
2024/01/21 04:41:54;;;;;;;5.40;2.28;;;;;;;;;;4962523;28;95512;-81
2024/01/21 04:44:24;;;;;;;7.32;2.47;;;;;;;;;;4963116;28;92162;-81
2024/01/21 04:46:51;;;;;;;9.60;2.25;;;;;;;;;;4962405;28;96892;-81
2024/01/21 04:49:17;;;;;;;6.00;2.13;;;;;;;;;;4947188;28;95505;-82
2024/01/21 04:51:44;;;;;;;4.97;2.22;;;;;;;;;;4962036;28;92337;-81
2024/01/21 04:54:10;;;;;;;6.55;2.20;;;;;;;;;;4963938;28;92366;-82
2024/01/21 04:56:37;;;;;;;4.45;1.95;;;;;;;;;;4964054;28;93361;-82
2024/01/21 04:59:04;;;;;;;4.65;2.00;;;;;;;;;;4963882;28;92718;-82
2024/01/21 05:01:31;;;;;;;5.20;2.25;;;;;;;;;;4964839;28;95361;-83
2024/01/21 05:03:58;;;;;;;;;;;;;;;;;;4966044;28;91514;-81
2024/01/21 05:06:25;;;;;;;5.22;2.10;;;;;;;;;;4963184;28;120702;-82
2024/01/21 05:08:51;;;;;;;5.00;2.08;;;;;;;;;;4980825;28;92711;-82
2024/01/21 05:11:18;;;;;;;4.28;2.00;;;;;;;;;;4982969;28;94876;-82
2024/01/21 05:13:44;;;;;;;3.85;1.95;;;;;;;;;;4977887;28;94847;-82
2024/01/21 05:16:18;;;;;;;6.40;2.20;;;;;;;;;;4963831;28;95048;-83
2024/01/21 05:18:45;;;;;;;5.60;2.35;;;;;;;;;;4964043;28;92347;-80
2024/01/21 05:21:17;;;;;;;5.88;1.90;;;;;;;;;;4963317;28;94565;-81
2024/01/21 05:23:44;;;;;;;5.82;2.00;;;;;;;;;;4967446;28;92694;-82
2024/01/21 05:26:11;;;;;;;7.43;2.30;;;;;;;;;;4979364;28;94338;-82
2024/01/21 05:28:38;;;;;;;8.35;2.33;;;;;;;;;;4962959;28;92912;-81
2024/01/21 05:31:06;;;;;;;4.97;2.05;;;;;;;;;;4947862;28;92625;-81
2024/01/21 05:33:36;;;;;;;5.18;1.92;;;;;;;;;;4964228;28;92813;-82
2024/01/21 05:36:03;;;;;;;6.28;2.03;;;;;;;;;;4961577;28;95222;-82
2024/01/21 05:38:30;;;;;;;5.65;2.03;;;;;;;;;;4963982;28;94197;-82
2024/01/21 05:40:56;;;;;;;6.07;2.20;;;;;;;;;;4944579;28;93456;-81
2024/01/21 05:43:23;;;;;;;5.10;2.15;;;;;;;;;;4960073;28;95735;-81
2024/01/21 05:45:50;;;;;;;5.28;1.90;;;;;;;;;;4963918;28;92251;-81
2024/01/21 05:48:17;;;;;;;6.13;2.20;;;;;;;;;;4963299;28;92695;-82
2024/01/21 05:50:44;;;;;;;6.47;2.20;;;;;;;;;;4963629;28;92543;-81
2024/01/21 05:53:10;;;;;;;5.07;2.00;;;;;;;;;;4955329;28;94660;-82
2024/01/21 05:55:37;;;;;;;5.93;1.95;;;;;;;;;;4967265;28;92753;-83
2024/01/21 05:58:03;;;;;;;5.82;2.30;;;;;;;;;;4983776;28;92561;-82
2024/01/21 06:00:30;;;;;;;5.80;2.30;;;;;;;;;;4959664;28;94898;-82
2024/01/21 06:02:56;;;;;;;6.15;2.20;;;;;;;;;;4965433;28;93061;-82
2024/01/21 06:05:23;;;;;;;4.35;2.00;;;;;;;;;;4970434;28;92158;-81
2024/01/21 06:07:50;;;;;;;6.25;2.50;;;;;;;;;;4994517;28;95311;-81
2024/01/21 06:10:17;;;;;;;6.68;2.50;;;;;;;;;;4987494;28;92259;-82
2024/01/21 06:12:43;;;;;;;5.55;2.22;;;;;;;;;;4974761;28;92223;-80
2024/01/21 06:15:12;;;;;;;5.05;1.98;;;;;;;;;;4950108;28;95073;-80
2024/01/21 06:17:39;;;;;;;5.20;2.10;;;;;;;;;;4967698;28;91234;-82
2024/01/21 06:20:06;;;;;;;5.78;2.30;;;;;;;;;;4962092;28;92076;-82
2024/01/21 06:22:34;;;;;;;6.45;2.10;;;;;;;;;;4949430;28;92697;-82
2024/01/21 06:25:00;;;;;;;5.07;2.30;;;;;;;;;;4944192;28;94974;-81
2024/01/21 06:27:27;;;;;;;5.95;2.08;;;;;;;;;;4945008;28;96278;-82
2024/01/21 06:29:53;;;;;;;6.22;2.55;;;;;;;;;;4956186;28;92133;-82
2024/01/21 06:32:20;;;;;;;5.40;2.15;;;;;;;;;;4948760;28;93280;-81
2024/01/21 06:34:46;;;;;;;6.60;2.40;;;;;;;;;;4957759;28;95156;-84
2024/01/21 06:37:13;;;;;;;5.95;2.38;;;;;;;;;;4956791;28;92062;-83
2024/01/21 06:39:41;;;;;;;5.78;2.22;;;;;;;;;;4943761;28;95007;-83
2024/01/21 06:42:13;;;;;;;6.13;2.42;;;;;;;;;;4946659;28;94593;-83
2024/01/21 06:44:42;;;;;;;5.72;2.38;;;;;;;;;;4962771;28;92754;-83
2024/01/21 06:47:08;;;;;;;6.55;2.58;;;;;;;;;;4963055;28;95254;-82
2024/01/21 06:49:35;;;;;;;4.97;2.10;;;;;;;;;;4964844;28;97858;-83
2024/01/21 06:52:02;;;;;;;5.35;2.17;;;;;;;;;;4964270;28;95718;-83
2024/01/21 06:54:28;;;;;;;6.50;2.47;;;;;;;;;;4962341;28;95355;-83
2024/01/21 06:56:55;;;;;;;7.05;2.58;;;;;;;;;;4971873;28;92380;-83
2024/01/21 06:59:22;;;;;;;6.53;2.47;;;;;;;;;;4947105;28;95144;-83
2024/01/21 07:01:48;;;;;;;5.85;2.45;;;;;;;;;;4962426;28;95684;-83
2024/01/21 07:04:15;;;;;;;5.32;2.40;;;;;;;;;;4962917;28;99985;-84
2024/01/21 07:06:42;;;;;;;6.35;2.47;;;;;;;;;;4963323;28;94079;-83
2024/01/21 07:09:10;;;;;;;5.78;2.35;;;;;;;;;;4983587;28;93137;-84
2024/01/21 07:11:40;;;;;;;7.97;2.28;;;;;;;;;;4973343;28;92138;-84
2024/01/21 07:14:07;;;;;;;5.53;2.20;;;;;;;;;;4961896;28;98197;-85
2024/01/21 07:16:33;;;;;;;6.43;2.28;;;;;;;;;;4962674;28;92517;-84
2024/01/21 07:19:00;;;;;;;5.10;2.33;;;;;;;;;;4963074;28;95537;-83
2024/01/21 07:21:27;;;;;;;7.47;2.50;;;;;;;;;;4963160;28;95545;-82
2024/01/21 07:23:53;;;;;;;6.35;2.42;;;;;;;;;;4962921;28;92602;-84
2024/01/21 07:26:23;;;;;;;5.05;2.22;;;;;;;;;;4963053;28;92436;-84
2024/01/21 07:28:49;;;;;;;6.97;2.50;;;;;;;;;;4962661;28;92164;-83
2024/01/21 07:31:16;;;;;;;6.05;2.15;;;;;;;;;;4962944;28;91422;-83
2024/01/21 07:33:43;;;;;;;5.45;2.33;;;;;;;;;;4965336;28;92073;-81
2024/01/21 07:36:10;;;;;;;5.60;2.30;;;;;;;;;;4961447;28;92139;-83
2024/01/21 07:38:37;;;;;;;5.90;2.30;;;;;;;;;;4959777;28;94358;-82
2024/01/21 07:41:04;;;;;;;6.55;2.80;;;;;;;;;;4961129;28;95693;-82
2024/01/21 07:43:31;;;;;;;5.90;2.22;;;;;;;;;;4961685;28;92589;-82
2024/01/21 07:45:57;;;;;;;6.03;2.38;;;;;;;;;;4963039;28;92156;-83
2024/01/21 07:48:24;;;;;;;5.57;2.35;;;;;;;;;;4962721;28;95091;-83
2024/01/21 07:50:53;;;;;;;6.22;2.40;;;;;;;;;;4945877;28;94380;-83
2024/01/21 07:53:20;;;;;;;6.40;2.45;;;;;;;;;;4961862;28;92875;-83
2024/01/21 07:55:48;;;;;;;6.00;2.42;;;;;;;;;;4971656;28;92323;-81
2024/01/21 07:58:15;;;;;;;6.40;2.30;;;;;;;;;;4981304;28;92866;-83
2024/01/21 08:00:45;;;;;;;6.53;2.20;;;;;;;;;;4963529;28;93398;-85
2024/01/21 08:03:12;;;;;;;9.25;2.40;;;;;;;;;;4979323;28;94558;-82
2024/01/21 08:05:39;;;;;;;7.25;2.50;;;;;;;;;;4979315;28;97400;-82
2024/01/21 08:08:06;;;;;;;12.00;2.75;;;;;;;;;;4980318;28;92913;-82
2024/01/21 08:10:33;;;;;;;8.57;2.60;;;;;;;;;;4947104;28;92697;-82
2024/01/21 08:13:00;;;;;;;6.50;2.65;;;;;;;;;;4961562;28;93687;-83
2024/01/21 08:15:27;;;;;;;6.63;2.38;;;;;;;;;;4959569;28;95147;-83
2024/01/21 08:17:54;;;;;;;5.47;2.22;;;;;;;;;;4941534;28;92701;-84
2024/01/21 08:20:21;;;;;;;5.50;2.20;;;;;;;;;;4956864;28;94150;-83
2024/01/21 08:22:48;;;;;;;5.85;2.47;;;;;;;;;;4923866;28;92310;-83
2024/01/21 08:25:15;;;;;;;7.18;2.35;;;;;;;;;;4946233;28;94519;-83
2024/01/21 08:27:42;;;;;;;5.72;2.00;;;;;;;;;;4922027;28;98081;-83
2024/01/21 08:30:09;;;;;;;8.80;2.25;;;;;;;;;;4941836;28;92264;-83
2024/01/21 08:32:36;;;;;;;6.97;2.47;;;;;;;;;;4940961;28;92729;-82
2024/01/21 08:35:03;;;;;;;6.05;2.20;;;;;;;;;;4945347;28;93072;-83
2024/01/21 08:37:29;;;;;;;6.13;2.00;;;;;;;;;;4964367;28;92428;-83
2024/01/21 08:39:56;;;;;;;5.65;2.30;;;;;;;;;;4958871;28;95221;-84
2024/01/21 08:42:23;;;;;;;5.50;2.50;;;;;;;;;;4962728;28;92572;-83
2024/01/21 08:44:51;;;;;;;5.13;2.25;;;;;;;;;;4947633;28;99057;-84
2024/01/21 08:47:17;;;;;;;4.80;2.10;;;;;;;;;;4964776;28;92499;-84
2024/01/21 08:49:44;;;;;;;4.43;2.08;;;;;;;;;;4965218;28;92441;-83
2024/01/21 08:52:11;;;;;;;;;;;;;;;;;;4963379;28;94481;-83
2024/01/21 08:54:38;;;;;;;6.90;2.20;;;;;;;;;;4963462;28;108005;-83
2024/01/21 08:57:05;;;;;;;5.50;2.03;;;;;;;;;;4979724;28;92708;-84
2024/01/21 08:59:33;;;;;;;4.97;2.10;;;;;;;;;;4987452;28;92385;-84
2024/01/21 09:02:00;;;;;;;5.70;2.30;;;;;;;;;;4966691;28;92330;-84
2024/01/21 09:04:26;;;;;;;4.65;2.15;;;;;;;;;;4951316;28;94850;-83
2024/01/21 09:06:53;;;;;;;5.25;2.17;;;;;;;;;;4964088;28;92715;-83
2024/01/21 09:09:20;;;;;;;8.57;2.58;;;;;;;;;;4948881;28;91350;-84
2024/01/21 09:11:47;;;;;;;4.90;2.08;;;;;;;;;;4963532;28;92610;-83
2024/01/21 09:14:14;;;;;;;8.20;2.20;;;;;;;;;;4963714;28;92521;-83
2024/01/21 09:16:41;;;;;;;6.93;2.10;;;;;;;;;;4961092;28;94448;-83
2024/01/21 09:19:08;;;;;;;7.95;2.33;;;;;;;;;;4964168;28;95189;-82
2024/01/21 09:21:35;;;;;;;5.65;2.30;;;;;;;;;;4965265;28;93553;-82
2024/01/21 09:24:04;;;;;;;7.78;2.30;;;;;;;;;;4962487;28;92724;-82
2024/01/21 09:26:31;;;;;;;5.53;2.40;;;;;;;;;;4962414;28;92675;-82
2024/01/21 09:28:58;;;;;;;5.32;2.20;;;;;;;;;;4949147;28;92104;-82
2024/01/21 09:31:25;;;;;;;;;;;;;;;;;;4966701;28;92959;-82
2024/01/21 09:33:52;;;;;;;5.65;2.28;;;;;;;;;;4972981;28;104811;-80
2024/01/21 09:36:19;;;;;;;5.13;2.28;;;;;;;;;;4961747;28;92117;-82
2024/01/21 09:38:46;;;;;;;5.47;2.10;;;;;;;;;;4965898;28;92290;-82
2024/01/21 09:41:18;;;;;;;4.32;1.98;;;;;;;;;;4971953;28;95600;-81
2024/01/21 09:43:45;;;;;;;5.30;2.10;;;;;;;;;;4978706;28;92087;-82
2024/01/21 09:46:11;;;;;;;5.00;2.20;;;;;;;;;;4967477;28;92367;-83
2024/01/21 09:48:38;;;;;;;5.38;2.25;;;;;;;;;;4963619;28;92623;-83
2024/01/21 09:51:06;;;;;;;5.07;2.30;;;;;;;;;;4965598;28;93134;-81
2024/01/21 09:53:33;;;;;;;5.28;2.17;;;;;;;;;;4962252;28;93147;-84
2024/01/21 09:56:05;;;;;;;5.10;2.33;;;;;;;;;;4971052;28;92035;-83
2024/01/21 09:58:33;;;;;;;5.50;2.13;;;;;;;;;;4981739;28;94517;-83
2024/01/21 10:01:02;;;;;;;4.88;2.00;;;;;;;;;;4962321;28;93122;-82
2024/01/21 10:03:29;;;;;;;4.40;2.10;;;;;;;;;;4962216;28;92133;-89
2024/01/21 10:05:58;;;;;;;8.45;2.22;;;;;;;;;;4963320;28;94947;-88
2024/01/21 10:08:26;;;;;;;4.47;1.75;;;;;;;;;;4951567;28;92288;-88
2024/01/21 10:10:54;;;;;;;5.25;2.17;;;;;;;;;;4982930;28;92414;-89
2024/01/21 10:13:20;;;;;;;;;;;;;;;;;;4981137;28;92720;-88
2024/01/21 10:15:55;;;;;;;4.07;1.90;;;;;;;;;;4949282;28;92540;-86
2024/01/21 10:18:23;;;;;;;7.72;2.47;;;;;;;;;;4964780;28;94297;-86
2024/01/21 10:20:50;;;;;;;4.25;2.10;;;;;;;;;;4963427;28;95465;-87
2024/01/21 10:23:17;;;;;;;5.47;2.33;;;;;;;;;;4948262;28;91509;-87
2024/01/21 10:25:44;;;;;;;5.65;2.17;;;;;;;;;;4966321;28;92027;-86
2024/01/21 10:28:12;;;;;;;5.10;2.20;;;;;;;;;;4962875;28;92596;-87
2024/01/21 10:30:38;;;;;;;4.47;2.03;;;;;;;;;;4961154;28;95118;-87
2024/01/21 10:33:06;;;;;;;16.95;2.78;;;;;;;;;;4946423;28;95141;-82
2024/01/21 10:35:33;;;;;;;7.57;2.05;;;;;;;;;;4953666;28;91956;-85
2024/01/21 10:38:02;;;;;;;7.88;2.42;;;;;;;;;;4946364;28;92592;-86
2024/01/21 10:40:29;;;;;;;7.25;2.10;;;;;;;;;;4965085;28;92697;-88
2024/01/21 10:42:59;;;;;;;7.72;2.30;;;;;;;;;;4967729;28;92397;-87
2024/01/21 10:45:26;;;;;;;5.70;2.17;;;;;;;;;;4964609;28;98171;-87
2024/01/21 10:47:54;;;;;;;4.85;2.30;;;;;;;;;;4967166;28;97872;-88
2024/01/21 10:50:23;;;;;;;;;;;;;;;;;;4963587;28;99612;-88
2024/01/21 10:52:51;;;;;;;5.97;2.22;;;;;;;;;;4964104;28;103573;-87
2024/01/21 10:55:18;;;;;;;3.50;1.90;;;;;;;;;;4956366;28;98984;-88
2024/01/21 10:57:47;;;;;;;7.28;2.20;;;;;;;;;;4983331;28;99260;-89
2024/01/21 11:00:17;;;;;;;4.70;2.00;;;;;;;;;;4981982;28;98220;-88
2024/01/21 11:03:02;;;;;;;6.68;2.25;;;;;;;;;;4968990;28;98299;-85
2024/01/21 11:05:30;;;;;;;5.63;2.20;;;;;;;;;;4961178;28;98990;-86
2024/01/21 11:07:57;;;;;;;;;;;;;;;;;;4949307;28;100320;-88
2024/01/21 11:10:27;;;;;;;5.80;2.20;;;;;;;;;;4975724;28;98278;-87
2024/01/21 11:12:58;;;;;;;6.55;2.28;;;;;;;;;;4962686;28;100756;-86
2024/01/21 11:15:28;;;;;;;5.75;2.10;;;;;;;;;;4962825;28;98677;-86
2024/01/21 11:18:11;;;;;;;5.70;2.30;;;;;;;;;;4946091;28;105956;-90
2024/01/21 11:20:39;;;;;;;5.35;2.13;;;;;;;;;;4961333;28;99706;-87
2024/01/21 11:23:16;;;;;;;5.05;2.10;;;;;;;;;;4963113;28;98157;-86
2024/01/21 11:25:48;;;;;;;5.03;1.92;;;;;;;;;;4956635;28;100876;-87
2024/01/21 11:28:26;;;;;;;7.53;2.08;;;;;;;;;;4963140;28;98603;-89
2024/01/21 11:31:00;;;;;;;6.60;2.20;;;;;;;;;;4962569;28;98128;-87
2024/01/21 11:33:28;;;;;;;5.60;2.15;;;;;;;;;;4966455;28;100908;-83
2024/01/21 11:35:57;;;;;;;6.30;2.30;;;;;;;;;;4945114;28;98856;-87
2024/01/21 11:38:24;;;;;;;5.03;2.28;;;;;;;;;;4962475;28;98572;-85
2024/01/21 11:41:01;;;;;;;4.85;1.92;;;;;;;;;;4963170;28;103118;-86
2024/01/21 11:43:28;;;;;;;6.30;2.25;;;;;;;;;;4946492;28;98346;-87
2024/01/21 11:45:55;;;;;;;6.35;2.25;;;;;;;;;;4962903;28;99046;-89
2024/01/21 11:48:30;;;;;;;4.97;2.00;;;;;;;;;;4963333;28;100869;-89
2024/01/21 11:50:57;;;;;;;6.13;2.30;;;;;;;;;;4962636;28;98209;-91
2024/01/21 11:53:24;;;;;;;6.13;2.20;;;;;;;;;;4963136;28;98784;-87
2024/01/21 11:55:51;;;;;;;5.88;2.28;;;;;;;;;;4969309;28;101343;-83
2024/01/21 11:58:18;;;;;;;5.97;2.15;;;;;;;;;;4957744;28;100707;-83
2024/01/21 12:00:45;;;;;;;5.53;2.40;;;;;;;;;;4957888;28;101408;-82
2024/01/21 12:03:12;;;;;;;5.70;2.30;;;;;;;;;;4956902;28;97451;-82
2024/01/21 12:05:41;;;;;;;5.28;2.42;;;;;;;;;;4941580;28;100253;-85
2024/01/21 12:08:09;;;;;;;4.32;2.03;;;;;;;;;;4969828;28;101483;-84
2024/01/21 12:10:36;;;;;;;6.55;1.90;;;;;;;;;;4966303;28;98961;-86
2024/01/21 12:13:04;;;;;;;6.25;2.38;;;;;;;;;;4962955;28;99806;-88
2024/01/21 12:15:37;;;;;;;5.80;2.15;;;;;;;;;;4946639;28;101479;-86
2024/01/21 12:18:06;;;;;;;4.80;2.00;;;;;;;;;;4966446;28;98103;-86
2024/01/21 12:20:35;;;;;;;4.05;1.90;;;;;;;;;;4960745;28;101309;-85
2024/01/21 12:23:07;;;;;;;8.88;2.38;;;;;;;;;;4965761;28;98166;-93
2024/01/21 12:25:40;;;;;;;8.98;2.35;;;;;;;;;;4962399;28;98144;-86
2024/01/21 12:28:06;;;;;;;5.78;2.20;;;;;;;;;;4963203;28;100352;-87
2024/01/21 12:30:39;;;;;;;7.53;1.90;;;;;;;;;;4963908;28;98343;-87
2024/01/21 12:33:05;;;;;;;3.95;1.90;;;;;;;;;;4961755;28;98370;-81
2024/01/21 12:35:32;;;;;;;4.80;1.95;;;;;;;;;;4941902;28;102384;-80
2024/01/21 12:37:59;;;;;;;5.95;2.10;;;;;;;;;;4960892;28;98734;-79
2024/01/21 12:40:26;;;;;;;5.43;2.10;;;;;;;;;;4957218;28;102595;-80
2024/01/21 12:42:53;;;;;;;4.70;2.00;;;;;;;;;;4957752;28;98252;-79
2024/01/21 12:45:19;;;;;;;4.80;1.90;;;;;;;;;;4959547;28;98554;-81
2024/01/21 12:47:47;;;;;;;4.32;2.10;;;;;;;;;;4959253;28;98333;-78
2024/01/21 12:50:13;;;;;;;5.40;2.10;;;;;;;;;;4958868;28;98367;-78
2024/01/21 12:52:40;;;;;;;4.35;2.00;;;;;;;;;;4960723;28;100303;-80
2024/01/21 12:55:07;;;;;;;4.95;2.05;;;;;;;;;;4957727;28;101543;-80
2024/01/21 12:57:33;;;;;;;5.38;1.88;;;;;;;;;;4978056;28;98318;-80
2024/01/21 13:00:00;;;;;;;4.70;2.10;;;;;;;;;;4983702;28;99283;-80
2024/01/21 13:02:27;;;;;;;4.70;2.15;;;;;;;;;;4974011;28;98386;-82
2024/01/21 13:04:53;;;;;;;5.65;2.08;;;;;;;;;;4966026;28;98537;-86
2024/01/21 13:07:21;;;;;;;7.63;2.10;;;;;;;;;;4975422;28;98769;-90
2024/01/21 13:09:48;;;;;;;3.85;1.23;;;;;;;;;;4991707;28;97726;-89
2024/01/21 13:12:15;;;;;;;;;;;;;;;;;;4972445;28;100473;-91
2024/01/21 13:14:45;;;;;;;4.55;1.85;;;;;;;;;;4969302;28;114179;-93
2024/01/21 13:17:12;;;;;;;4.88;2.03;;;;;;;;;;4966916;28;99649;-92
2024/01/21 13:20:26;;;;;;;5.47;2.10;;;;;;;;;;4963931;28;99903;-95
2024/01/21 13:24:21;;;;;;;6.28;2.42;;;;;;;;;;4920302;28;102833;-94
2024/01/21 13:34:29;;;;;;;7.25;2.20;;;;;;;;;;4958091;28;99947;-95
2024/01/21 13:42:12;;;;;;;7.00;2.63;;;;;;;;;;4935727;23;102956;-70
2024/01/21 13:44:39;;;;;;;6.53;2.60;;;;;;;;;;4946526;28;98650;-72
2024/01/21 13:47:06;;;;;;;5.50;2.00;;;;;;;;;;4947946;28;100218;-72
2024/01/21 13:49:32;;;;;;;5.45;2.28;;;;;;;;;;4947882;28;99333;-71
2024/01/21 13:51:59;;;;;;;6.50;2.22;;;;;;;;;;4950708;28;99809;-71
2024/01/21 13:54:26;;;;;;;5.03;2.17;;;;;;;;;;4946508;28;99451;-71
2024/01/21 13:56:53;;;;;;;6.35;2.20;;;;;;;;;;4946839;28;99650;-71
2024/01/21 13:59:19;;;;;;;5.60;2.30;;;;;;;;;;4946049;28;100857;-71
2024/01/21 14:01:46;;;;;;;5.65;2.33;;;;;;;;;;4946789;28;100180;-71
2024/01/21 14:04:29;;;;;;;4.90;2.10;;;;;;;;;;4946543;28;98451;-71
2024/01/21 14:06:56;;;;;;;4.75;2.00;;;;;;;;;;4947523;28;99639;-71
2024/01/21 14:09:22;;;;;;;5.32;2.20;;;;;;;;;;4946624;28;99941;-70
2024/01/21 14:11:49;;;;;;;5.43;2.22;;;;;;;;;;4947117;28;98908;-71
2024/01/21 14:14:16;;;;;;;4.82;2.20;;;;;;;;;;4940075;28;98912;-71
2024/01/21 14:16:42;;;;;;;7.13;2.42;;;;;;;;;;4929173;28;98928;-71
2024/01/21 14:19:09;;;;;;;5.95;2.40;;;;;;;;;;4947099;28;98865;-71
2024/01/21 14:21:35;;;;;;;4.97;2.30;;;;;;;;;;4946330;28;100001;-71
2024/01/21 14:24:03;;;;;;;4.63;2.25;;;;;;;;;;4947307;28;98963;-71
2024/01/21 14:26:34;;;;;;;5.28;2.10;;;;;;;;;;4946574;28;99311;-71
2024/01/21 14:29:02;;;;;;;6.88;2.40;;;;;;;;;;4947068;28;99139;-71
2024/01/21 14:31:29;;;;;;;6.50;2.40;;;;;;;;;;4946413;28;98595;-71
2024/01/21 14:33:55;;;;;;;5.03;2.03;;;;;;;;;;4949131;28;98964;-71
2024/01/21 14:36:22;;;;;;;5.47;2.55;;;;;;;;;;4946573;28;98840;-71
2024/01/21 14:38:48;;;;;;;6.32;2.40;;;;;;;;;;4946492;28;98687;-71
2024/01/21 14:41:15;;;;;;;4.97;2.17;;;;;;;;;;4944416;28;105017;-71
2024/01/21 14:43:41;;;;;;;4.97;2.40;;;;;;;;;;4946968;28;98807;-71
2024/01/21 14:46:08;;;;;;;4.30;2.22;;;;;;;;;;4945991;28;99561;-71
2024/01/21 14:48:36;;;;;;;4.78;2.28;;;;;;;;;;4928608;28;99757;-71
2024/01/21 14:51:03;;;;;;;4.78;2.42;;;;;;;;;;4926704;28;98607;-70
2024/01/21 14:53:31;;;;;;;5.47;2.58;;;;;;;;;;4926449;28;100112;-70
2024/01/21 14:55:58;;;;;;;5.32;2.60;;;;;;;;;;4937236;28;100183;-71
2024/01/21 14:58:25;;;;;;;6.03;2.35;;;;;;;;;;4911022;28;100006;-72